Ambler, Alaska
Current Conditions -  °F | °C
As of 12:16 PM on Saturday 20 Dec 2014 (Local Time) from PAFM Reporting Station
Clear Clear  
Wind Chill: -7°   Ceiling: Unl
Heat Index:   Visibility: 10mi
Dew Point: -2°   Wind: 13mph
Humidity: 62%   Direction: 30°NNE
Pressure: 29.33"   Gusts: 18mph
Location:  67.09°N, 157.85°W
Report Text: PAFM 202116Z AUTO 03011G16KT 10SM CLR M13/M19 A2933 RMK AO1
Loading
Personal Weather Stations






























Interactive Weather Map New forecast layout! Learn more

10-Day Weather Forecast

Advertisements
Track Severe Weather on mobile